Time;durP1;ratioP1;P1;durP2;ratioP2;P2;SDS_P1;SDS_P2;PMS_P1;PMS_P2;Temp;Humidity;BMP_temperature;BMP_pressure;BME280_temperature;BME280_humidity;BME280_pressure;Samples;Min_cycle;Max_cycle;Signal;HPM_P1;HPM_P2
2022/06/01 00:00:56;;;;;;;10.10;8.55;;;;;;;7.09;100.00;100289.50;5047604;28;20029;-68
2022/06/01 00:03:23;;;;;;;11.73;7.97;;;;;;;7.31;100.00;100333.94;5047837;28;20028;-68
2022/06/01 00:05:48;;;;;;;9.63;8.02;;;;;;;7.34;100.00;100349.50;5011226;28;20914;-68
2022/06/01 00:08:14;;;;;;;8.35;7.45;;;;;;;7.27;100.00;100353.25;5045899;28;20028;-68
2022/06/01 00:10:39;;;;;;;10.07;8.10;;;;;;;7.28;100.00;100358.44;5041868;28;20884;-68
2022/06/01 00:13:05;;;;;;;10.05;7.60;;;;;;;7.23;100.00;100346.47;5047524;28;20038;-68
2022/06/01 00:15:33;;;;;;;10.27;7.85;;;;;;;7.28;100.00;100362.81;5048059;28;20028;-68
2022/06/01 00:18:00;;;;;;;8.77;7.47;;;;;;;7.27;100.00;100348.03;5047332;28;20043;-68
2022/06/01 00:20:26;;;;;;;10.35;7.70;;;;;;;7.19;100.00;100346.56;5047158;28;20131;-68
2022/06/01 00:22:51;;;;;;;8.90;7.30;;;;;;;7.10;100.00;100331.22;5046950;28;20027;-68
2022/06/01 00:25:17;;;;;;;10.70;8.25;;;;;;;7.26;100.00;100357.66;5046828;28;20032;-68
2022/06/01 00:27:42;;;;;;;8.05;7.05;;;;;;;7.23;100.00;100355.16;5054330;28;20070;-67
2022/06/01 00:30:11;;;;;;;9.63;8.18;;;;;;;7.26;100.00;100351.56;5058854;28;20040;-68
2022/06/01 00:32:37;;;;;;;9.20;7.60;;;;;;;7.24;100.00;100361.22;5045912;28;20027;-68
2022/06/01 00:35:04;;;;;;;9.90;7.88;;;;;;;7.14;100.00;100351.09;5046540;28;20123;-68
2022/06/01 00:37:30;;;;;;;9.15;6.90;;;;;;;7.16;100.00;100359.72;5064522;28;20039;-68
2022/06/01 00:39:56;;;;;;;9.35;7.47;;;;;;;7.15;100.00;100351.97;5093804;28;20040;-68
2022/06/01 00:42:24;;;;;;;9.43;6.95;;;;;;;7.18;100.00;100357.94;5092107;28;20032;-68
2022/06/01 00:44:50;;;;;;;9.82;6.93;;;;;;;7.13;100.00;100349.38;5084797;28;20050;-68
2022/06/01 00:47:16;;;;;;;11.93;7.80;;;;;;;7.05;100.00;100348.84;5046114;28;20883;-68
2022/06/01 00:49:46;;;;;;;10.02;8.18;;;;;;;7.02;100.00;100338.50;5046377;28;20764;-68
2022/06/01 00:52:12;;;;;;;7.38;6.45;;;;;;;7.03;100.00;100348.03;5045061;28;20015;-68
2022/06/01 00:54:37;;;;;;;9.27;8.35;;;;;;;6.95;100.00;100342.25;5034271;28;20023;-68
2022/06/01 00:57:10;;;;;;;8.90;7.57;;;;;;;6.99;100.00;100346.47;5045470;28;20024;-68
2022/06/01 00:59:39;;;;;;;7.57;6.10;;;;;;;6.98;100.00;100355.19;5057124;28;20035;-68
2022/06/01 01:02:06;;;;;;;9.18;6.75;;;;;;;6.80;100.00;100329.72;5071951;28;20028;-68
2022/06/01 01:04:32;;;;;;;10.23;6.78;;;;;;;6.86;100.00;100337.34;5077848;28;20036;-68
2022/06/01 01:07:02;;;;;;;11.32;7.88;;;;;;;6.69;100.00;100318.84;5091803;28;20024;-68
2022/06/01 01:09:28;;;;;;;10.15;6.95;;;;;;;6.81;100.00;100335.81;5083119;28;20115;-68
2022/06/01 01:11:57;;;;;;;7.95;6.85;;;;;;;6.82;100.00;100337.53;5085581;28;20106;-68
2022/06/01 01:14:28;;;;;;;8.32;6.90;;;;;;;6.86;100.00;100339.94;5090907;28;20036;-68
2022/06/01 01:16:54;;;;;;;8.48;6.50;;;;;;;6.86;100.00;100345.16;5090880;28;20024;-68
2022/06/01 01:19:32;;;;;;;7.55;6.47;;;;;;;6.83;100.00;100345.28;5077251;28;20028;-68
2022/06/01 01:22:26;;;;;;;12.20;7.50;;;;;;;6.75;100.00;100343.88;5077234;28;20064;-68
2022/06/01 01:25:16;;;;;;;8.82;6.70;;;;;;;6.85;100.00;100348.72;5073363;28;20040;-68
2022/06/01 01:27:42;;;;;;;7.25;6.35;;;;;;;6.80;100.00;100329.72;5083619;28;20016;-68
2022/06/01 01:30:38;;;;;;;9.82;7.07;;;;;;;6.87;100.00;100341.66;5045944;28;20027;-68
2022/06/01 01:33:05;;;;;;;7.43;6.32;;;;;;;6.87;100.00;100333.81;5045451;28;20067;-68
2022/06/01 01:35:31;;;;;;;7.88;6.45;;;;;;;6.89;100.00;100342.47;5035495;28;20173;-68
2022/06/01 01:37:58;;;;;;;7.50;6.75;;;;;;;6.85;100.00;100333.03;5040457;28;20164;-68
2022/06/01 01:40:25;;;;;;;8.85;6.70;;;;;;;6.81;100.00;100326.22;5036934;28;20130;-68
2022/06/01 01:42:52;;;;;;;7.72;6.82;;;;;;;6.85;100.00;100335.66;5041753;28;20048;-68
2022/06/01 01:45:25;;;;;;;9.35;7.07;;;;;;;6.94;100.00;100355.34;5044466;28;20032;-68
2022/06/01 01:47:51;;;;;;;7.20;5.93;;;;;;;6.95;100.00;100350.09;5045977;28;20086;-68
2022/06/01 01:50:18;;;;;;;10.75;7.13;;;;;;;6.96;100.00;100340.50;5045336;28;20034;-68
2022/06/01 01:52:44;;;;;;;9.02;7.03;;;;;;;6.94;100.00;100337.91;5045099;28;20027;-67
2022/06/01 01:55:38;;;;;;;9.27;7.53;;;;;;;7.03;100.00;100349.81;5045487;28;20056;-68
2022/06/01 01:58:27;;;;;;;8.23;7.43;;;;;;;7.06;100.00;100360.16;5046026;28;20052;-67
2022/06/01 02:00:57;;;;;;;11.02;8.27;;;;;;;7.11;100.00;100366.91;5044859;28;20024;-68
2022/06/01 02:03:30;;;;;;;9.35;7.70;;;;;;;6.78;100.00;100305.44;5044254;28;20039;-67
2022/06/01 02:06:09;;;;;;;10.73;8.00;;;;;;;7.19;100.00;100364.00;5055696;28;20024;-68
2022/06/01 02:08:46;;;;;;;11.77;8.48;;;;;;;7.23;100.00;100364.75;5044689;28;20410;-68
2022/06/01 02:14:22;;;;;;;9.80;8.73;;;;;;;7.28;100.00;100363.66;5046277;28;20035;-68
2022/06/01 02:16:54;;;;;;;12.55;8.75;;;;;;;7.15;100.00;100347.59;5076963;28;20023;-68
2022/06/01 02:19:24;;;;;;;11.05;8.80;;;;;;;7.10;100.00;100339.06;5090226;28;20024;-68
2022/06/01 02:21:52;;;;;;;9.75;8.75;;;;;;;7.18;100.00;100355.31;5090514;28;20020;-68
2022/06/01 02:24:18;;;;;;;10.32;9.23;;;;;;;6.98;100.00;100323.00;5049543;28;20880;-68
2022/06/01 02:26:45;;;;;;;13.35;9.10;;;;;;;7.18;100.00;100363.16;5045038;28;20047;-68
2022/06/01 02:29:15;;;;;;;15.00;9.18;;;;;;;7.20;100.00;100365.69;5043843;28;20067;-68
2022/06/01 02:31:42;;;;;;;16.05;9.57;;;;;;;7.11;100.00;100350.38;5056939;28;20050;-68
2022/06/01 02:34:08;;;;;;;10.52;9.13;;;;;;;7.19;100.00;100364.00;5091286;28;20032;-68
2022/06/01 02:36:34;;;;;;;11.90;9.77;;;;;;;7.10;100.00;100348.66;5091202;28;20038;-67
2022/06/01 02:39:02;;;;;;;11.70;9.85;;;;;;;7.18;100.00;100363.16;5091253;28;20059;-67
2022/06/01 02:44:11;;;;;;;12.33;10.77;;;;;;;7.03;100.00;100337.56;5092637;28;20402;-68
2022/06/01 02:46:37;;;;;;;12.32;9.90;;;;;;;7.17;100.00;100364.06;5082928;28;20024;-68
2022/06/01 02:49:03;;;;;;;17.50;11.93;;;;;;;7.13;100.00;100364.25;5046713;28;20020;-67
2022/06/01 02:51:29;;;;;;;16.00;11.93;;;;;;;7.12;100.00;100363.38;5046732;28;20028;-67
2022/06/01 02:53:54;;;;;;;13.52;10.80;;;;;;;7.08;100.00;100356.56;5046320;28;20984;-68
2022/06/01 02:56:20;;;;;;;12.75;11.02;;;;;;;7.02;100.00;100351.56;5045869;28;20036;-68
2022/06/01 02:58:45;;;;;;;12.13;10.85;;;;;;;7.03;100.00;100350.63;5047748;28;20089;-68
2022/06/01 03:01:11;;;;;;;13.02;11.63;;;;;;;7.06;100.00;100363.59;5047365;28;20075;-68
2022/06/01 03:03:37;;;;;;;15.25;11.77;;;;;;;7.03;100.00;100353.25;5049264;28;20028;-68
2022/06/01 03:06:02;;;;;;;13.98;11.52;;;;;;;7.05;100.00;100359.28;5047941;28;20453;-67
2022/06/01 03:08:28;;;;;;;13.52;12.13;;;;;;;7.00;100.00;100363.81;5045974;28;20032;-68
2022/06/01 03:10:54;;;;;;;11.88;10.70;;;;;;;6.98;100.00;100365.63;5044302;28;20027;-67
2022/06/01 03:13:21;;;;;;;12.75;11.45;;;;;;;6.96;100.00;100364.81;5048398;28;20036;-68
2022/06/01 03:15:46;;;;;;;11.82;10.63;;;;;;;6.94;100.00;100363.19;5044190;28;20029;-67
2022/06/01 03:18:12;;;;;;;19.08;11.40;;;;;;;6.90;100.00;100362.44;5042715;28;20024;-67
2022/06/01 03:20:38;;;;;;;12.68;11.38;;;;;;;6.86;100.00;100363.44;5046512;28;20856;-67
2022/06/01 03:23:04;;;;;;;12.88;11.30;;;;;;;6.74;100.00;100343.00;5044878;28;20024;-67
2022/06/01 03:25:29;;;;;;;15.77;12.52;;;;;;;6.82;100.00;100371.47;5045624;28;20135;-67
2022/06/01 03:27:58;;;;;;;12.77;11.07;;;;;;;6.79;100.00;100366.34;5053298;28;20138;-67
2022/06/01 03:30:24;;;;;;;13.85;10.88;;;;;;;6.71;100.00;100353.56;5045544;28;20989;-67
2022/06/01 03:32:50;;;;;;;11.95;10.65;;;;;;;6.83;100.00;100378.38;5046355;28;20049;-68
2022/06/01 03:35:21;;;;;;;13.88;11.63;;;;;;;6.69;100.00;100358.00;5045333;28;20024;-68
2022/06/01 03:37:47;;;;;;;11.52;10.10;;;;;;;6.75;100.00;100362.13;5042082;28;20874;-68
2022/06/01 03:40:14;;;;;;;16.13;10.77;;;;;;;6.82;100.00;100372.31;5093815;28;20044;-68
2022/06/01 03:42:39;;;;;;;10.93;9.82;;;;;;;6.79;100.00;100364.59;5093412;28;20020;-68
2022/06/01 03:47:50;;;;;;;18.50;10.50;;;;;;;6.86;100.00;100371.28;5040408;28;20040;-68
2022/06/01 03:50:17;;;;;;;16.05;10.27;;;;;;;6.66;100.00;100343.28;5041524;28;20135;-68
2022/06/01 03:52:45;;;;;;;11.43;9.50;;;;;;;6.82;100.00;100369.72;5081097;28;20181;-68
2022/06/01 03:55:12;;;;;;;13.77;9.50;;;;;;;6.86;100.00;100381.72;5055383;28;20387;-67
2022/06/01 03:57:38;;;;;;;13.95;10.48;;;;;;;6.87;100.00;100383.44;5047708;28;20020;-68
2022/06/01 04:00:09;;;;;;;10.13;8.75;;;;;;;6.87;100.00;100383.44;5071750;28;20487;-68
2022/06/01 04:02:34;;;;;;;12.85;8.98;;;;;;;6.88;100.00;100385.16;5071055;28;20024;-68
2022/06/01 04:04:59;;;;;;;11.63;8.18;;;;;;;6.89;100.00;100381.66;5047502;28;20900;-67
2022/06/01 04:07:25;;;;;;;11.77;8.27;;;;;;;6.87;100.00;100373.00;5046130;28;20135;-68
2022/06/01 04:09:51;;;;;;;13.20;8.23;;;;;;;6.95;100.00;100380.56;5048912;28;20198;-68
2022/06/01 04:12:17;;;;;;;11.35;8.65;;;;;;;6.74;100.00;100340.41;5068877;28;21784;-68
2022/06/01 04:14:42;;;;;;;9.90;6.97;;;;;;;7.03;100.00;100381.16;5092328;28;20024;-67
2022/06/01 04:17:08;;;;;;;9.48;7.03;;;;;;;7.05;100.00;100387.16;5091799;28;20050;-68
2022/06/01 04:19:33;;;;;;;8.77;6.45;;;;;;;7.05;100.00;100387.16;5092447;28;20344;-68
2022/06/01 04:21:59;;;;;;;7.65;6.25;;;;;;;7.09;100.00;100380.94;5072359;28;20080;-68
2022/06/01 04:24:28;;;;;;;10.15;6.45;;;;;;;7.12;100.00;100394.72;5033378;28;20139;-67
2022/06/01 04:26:54;;;;;;;8.95;6.65;;;;;;;7.12;100.00;100381.69;5048445;28;20023;-68
2022/06/01 04:29:19;;;;;;;9.25;6.70;;;;;;;6.82;100.00;100327.94;5047776;28;20032;-68
2022/06/01 04:31:45;;;;;;;7.82;5.93;;;;;;;7.15;100.00;100381.56;5047555;28;20889;-67
2022/06/01 04:34:10;;;;;;;7.20;6.35;;;;;;;7.26;100.00;100390.75;5046841;28;20815;-68
2022/06/01 04:36:36;;;;;;;9.55;6.22;;;;;;;7.29;100.00;100390.66;5045523;28;21727;-68
2022/06/01 04:39:02;;;;;;;7.43;6.32;;;;;;;7.32;100.00;100391.38;5044701;28;20872;-68
2022/06/01 04:41:27;;;;;;;10.90;7.50;;;;;;;7.29;100.00;100386.28;5053416;28;20085;-68
2022/06/01 04:43:53;;;;;;;16.23;7.03;;;;;;;7.34;100.00;100373.88;5043613;28;20035;-68
2022/06/01 04:46:18;;;;;;;11.27;7.22;;;;;;;7.36;100.00;100381.69;5046060;28;20040;-68
2022/06/01 04:48:44;;;;;;;12.45;6.65;;;;;;;7.48;100.00;100397.75;5044661;28;20035;-68
2022/06/01 04:51:09;;;;;;;12.85;6.40;;;;;;;7.49;100.00;100377.69;5045871;28;20028;-68
2022/06/01 04:53:34;;;;;;;7.72;5.57;;;;;;;7.59;100.00;100384.28;5085751;28;20024;-68
2022/06/01 04:56:00;;;;;;;8.52;5.38;;;;;;;7.44;100.00;100356.09;5093243;28;20534;-68
2022/06/01 04:58:25;;;;;;;7.03;5.30;;;;;;;7.71;100.00;100384.63;5093511;28;20023;-68
2022/06/01 05:00:51;;;;;;;8.35;5.43;;;;;;;7.70;100.00;100382.09;5085552;28;20466;-68
2022/06/01 05:03:16;;;;;;;12.30;5.20;;;;;;;7.80;100.00;100390.44;5086371;28;20046;-68
2022/06/01 05:05:42;;;;;;;7.00;5.20;;;;;;;7.86;100.00;100398.91;5092527;28;20027;-68
2022/06/01 05:08:10;;;;;;;8.65;5.28;;;;;;;7.93;100.00;100402.13;5078309;28;20024;-68
2022/06/01 05:10:35;;;;;;;8.10;5.22;;;;;;;7.99;100.00;100410.59;5073571;28;20052;-68
2022/06/01 05:13:01;;;;;;;8.07;5.32;;;;;;;8.05;100.00;100399.88;5060491;28;20095;-68
2022/06/01 05:15:26;;;;;;;5.82;4.38;;;;;;;8.08;100.00;100389.28;5043855;28;20106;-68
2022/06/01 05:17:52;;;;;;;7.53;4.82;;;;;;;8.17;100.00;100393.31;5050496;27;20025;-69
2022/06/01 05:20:17;;;;;;;7.38;4.95;;;;;;;8.29;100.00;100407.69;5044394;28;20032;-68
2022/06/01 05:22:43;;;;;;;8.88;5.55;;;;;;;8.37;100.00;100406.47;5042271;28;20086;-68
2022/06/01 05:25:09;;;;;;;7.75;5.10;;;;;;;8.21;100.00;100366.91;5050716;28;20044;-68
2022/06/01 05:27:35;;;;;;;10.27;4.90;;;;;;;8.52;100.00;100408.44;5055511;28;20024;-68
2022/06/01 05:30:01;;;;;;;7.50;4.57;;;;;;;8.58;100.00;100408.16;5068686;28;20040;-68
2022/06/01 05:32:27;;;;;;;7.63;4.53;;;;;;;8.69;100.00;100412.97;5074421;28;20020;-68
2022/06/01 05:34:53;;;;;;;6.38;4.47;;;;;;;8.77;100.00;100410.03;5080010;28;20024;-67
2022/06/01 05:37:18;;;;;;;8.43;4.32;;;;;;;8.81;100.00;100399.38;5108437;28;20539;-68
2022/06/01 05:39:44;;;;;;;6.95;5.03;;;;;;;8.89;100.00;100399.88;5092157;28;20056;-68
2022/06/01 05:42:10;;;;;;;6.03;4.20;;;;;;;8.86;100.00;100388.66;5089007;28;20130;-68
2022/06/01 05:44:35;;;;;;;10.57;4.78;;;;;;;8.50;100.00;100317.78;5070028;28;20036;-68
2022/06/01 05:47:01;;;;;;;10.95;4.47;;;;;;;9.11;100.00;100416.38;5057148;28;20028;-68
2022/06/01 05:49:27;;;;;;;6.75;4.70;;;;;;;9.20;100.00;100410.72;5055641;28;20028;-68
2022/06/01 05:51:53;;;;;;;7.45;4.65;;;;;;;9.33;100.00;100415.44;5078690;28;20024;-68
2022/06/01 05:54:19;;;;;;;11.90;4.43;;;;;;;9.44;100.00;100414.00;5092155;28;20035;-68
2022/06/01 05:56:45;;;;;;;7.10;4.25;;;;;;;9.53;100.00;100402.28;5092305;28;20039;-68
2022/06/01 05:59:11;;;;;;;11.13;4.28;;;;;;;9.69;100.00;100400.63;5090826;28;20023;-68
2022/06/01 06:01:37;;;;;;;8.60;5.20;;;;;;;9.99;100.00;100425.44;5061826;28;20032;-68
2022/06/01 06:04:03;;;;;;;8.48;5.43;;;;;;;10.13;100.00;100422.16;5032990;28;20029;-68
2022/06/01 06:06:28;;;;;;;6.80;3.78;;;;;;;10.10;100.00;100415.28;5043990;28;20135;-68
2022/06/01 06:09:02;;;;;;;7.93;4.57;;;;;;;10.06;100.00;100403.22;5061509;28;20386;-69
2022/06/01 06:11:34;;;;;;;18.50;4.03;;;;;;;10.01;100.00;100394.69;5052092;28;20139;-68
2022/06/01 06:14:00;;;;;;;13.02;4.68;;;;;;;10.29;100.00;100431.03;5066747;28;20127;-69
2022/06/01 06:16:29;;;;;;;6.32;3.92;;;;;;;10.02;100.00;100375.41;5060490;28;20059;-69
2022/06/01 06:18:57;;;;;;;8.77;4.45;;;;;;;10.44;100.00;100424.19;5072015;28;20135;-69
2022/06/01 06:21:24;;;;;;;8.15;4.38;;;;;;;10.42;100.00;100420.75;5073104;28;20024;-69
2022/06/01 06:23:49;;;;;;;10.27;4.68;;;;;;;10.47;100.00;100424.03;5073485;28;20038;-69
2022/06/01 06:26:15;;;;;;;6.90;4.15;;;;;;;10.41;100.00;100403.31;5067892;28;20028;-69
2022/06/01 06:28:40;;;;;;;8.05;5.00;;;;;;;10.61;100.00;100432.09;5083434;28;20116;-69
2022/06/01 06:31:05;;;;;;;6.85;3.78;;;;;;;10.67;100.00;100437.03;5064295;28;20055;-69
2022/06/01 06:33:31;;;;;;;10.48;5.38;;;;;;;10.70;100.00;100437.72;5066581;28;20027;-69
2022/06/01 06:36:05;;;;;;;7.47;4.82;;;;;;;10.71;100.00;100433.31;5062846;28;20511;-70
2022/06/01 06:38:32;;;;;;;5.70;3.67;;;;;;;10.78;100.00;100434.72;5063156;28;20044;-69
2022/06/01 06:40:58;;;;;;;7.65;3.75;;;;;;;10.65;100.00;100413.44;5074437;28;20065;-69
2022/06/01 06:43:26;;;;;;;10.50;4.95;;;;;;;10.90;100.00;100439.34;5064222;28;20474;-70
2022/06/01 06:45:56;;;;;;;8.82;4.85;;;;;;;10.95;100.00;100436.50;5052215;28;20024;-69
2022/06/01 06:48:21;;;;;;;8.98;4.88;;;;;;;11.03;100.00;100435.16;5070940;28;20085;-69
2022/06/01 06:50:47;;;;;;;11.02;4.95;;;;;;;10.85;100.00;100408.97;5075575;28;20024;-70
2022/06/01 06:53:13;;;;;;;8.40;5.60;;;;;;;10.88;100.00;100412.31;5079001;28;20109;-69
2022/06/01 06:55:39;;;;;;;8.52;5.88;;;;;;;10.91;100.00;100425.28;5058809;28;20020;-69
2022/06/01 06:58:09;;;;;;;9.55;5.10;;;;;;;11.07;100.00;100441.97;5067707;28;20064;-69
2022/06/01 07:00:35;;;;;;;10.27;5.32;;;;;;;10.90;100.00;100407.81;5068617;28;20016;-69
2022/06/01 07:03:00;;;;;;;21.05;5.80;;;;;;;11.22;100.00;100435.91;5055246;28;20935;-69
2022/06/01 07:08:10;;;;;;;14.20;5.35;;;;;;;11.30;100.00;100448.66;5039998;28;20074;-68
2022/06/01 07:10:35;;;;;;;9.68;5.07;;;;;;;11.32;100.00;100446.81;5036867;28;20032;-70
2022/06/01 07:13:00;;;;;;;9.77;5.60;;;;;;;11.39;100.00;100452.59;5056197;28;20043;-69
2022/06/01 07:15:26;;;;;;;14.50;6.90;;;;;;;11.40;100.00;100454.28;5050339;28;20082;-69
2022/06/01 07:17:51;;;;;;;11.48;5.30;;;;;;;11.54;100.00;100468.41;5044408;28;20031;-69
2022/06/01 07:20:18;;;;;;;12.23;6.18;;;;;;;11.58;100.00;100458.56;5060158;28;20036;-69
2022/06/01 07:22:43;;;;;;;13.25;6.45;;;;;;;11.84;100.00;100470.38;5053637;28;20125;-69
2022/06/01 07:25:09;;;;;;;10.32;6.40;;;;;;;12.03;100.00;100466.63;5061547;27;20938;-68
2022/06/01 07:27:36;;;;;;;12.30;7.10;;;;;;;12.16;100.00;100465.06;5065154;28;20503;-69
2022/06/01 07:30:06;;;;;;;10.95;6.75;;;;;;;12.48;100.00;100483.44;5083138;28;20081;-69
2022/06/01 07:32:31;;;;;;;14.57;7.93;;;;;;;12.53;100.00;100471.72;5090723;28;20036;-69
2022/06/01 07:34:57;;;;;;;16.15;7.43;;;;;;;12.38;100.00;100437.47;5092746;28;20027;-69
2022/06/01 07:43:06;;;;;;;16.85;8.85;;;;;;;12.47;100.00;100474.69;5092051;28;20499;-68
2022/06/01 07:45:34;;;;;;;13.27;9.10;;;;;;;12.50;100.00;100456.09;5084374;28;20502;-68
2022/06/01 07:47:59;;;;;;;15.63;8.55;;;;;;;12.51;100.00;100462.19;5060874;28;20032;-69
2022/06/01 07:50:24;;;;;;;18.05;9.20;;;;;;;12.58;100.00;100474.09;5041718;28;20025;-69
2022/06/01 07:52:50;;;;;;;12.25;7.90;;;;;;;12.57;100.00;100477.69;5041158;28;20032;-69
2022/06/01 07:55:15;;;;;;;14.07;7.95;;;;;;;12.70;100.00;100483.94;5048129;28;20784;-69
2022/06/01 07:57:40;;;;;;;9.95;6.47;;;;;;;12.75;100.00;100488.00;5048067;28;20031;-69
2022/06/01 08:00:07;;;;;;;8.98;5.72;;;;;;;12.72;100.00;100487.34;5049685;28;20127;-68
2022/06/01 08:02:32;;;;;;;9.95;6.43;;;;;;;12.63;100.00;100461.50;5038391;28;20040;-69
2022/06/01 08:04:57;;;;;;;12.45;6.32;;;;;;;12.62;100.00;100470.34;5044578;28;20120;-69
2022/06/01 08:07:23;;;;;;;7.57;5.25;;;;;;;12.67;100.00;100476.22;5047276;28;20073;-68
2022/06/01 08:09:48;;;;;;;8.57;6.13;;;;;;;12.77;100.00;100469.47;5047789;28;20034;-69
2022/06/01 08:14:57;;;;;;;8.50;4.83;;;;;;;13.13;100.00;100485.81;5047658;28;20932;-69
2022/06/01 08:17:23;;;;;;;6.85;3.90;;;;;;;13.22;100.00;100465.94;5043150;28;20274;-68
2022/06/01 08:19:48;;;;;;;6.32;4.03;;;;;;;13.46;100.00;100485.56;5055014;28;20436;-68
2022/06/01 08:22:17;;;;;;;26.58;5.88;;;;;;;13.64;100.00;100483.59;5048264;28;20038;-68
2022/06/01 08:24:43;;;;;;;6.75;4.03;;;;;;;13.90;100.00;100490.75;5046242;28;20130;-68
2022/06/01 08:27:09;;;;;;;8.85;4.57;;;;;;;13.93;100.00;100487.06;5035290;28;20935;-69
2022/06/01 08:29:35;;;;;;;7.25;4.32;;;;;;;14.00;100.00;100489.25;5047728;28;20036;-68
2022/06/01 08:32:00;;;;;;;8.95;4.00;;;;;;;14.07;100.00;100497.63;5048017;28;20093;-68
2022/06/01 08:34:26;;;;;;;9.98;4.13;;;;;;;14.03;100.00;100491.69;5048008;28;20122;-68
2022/06/01 08:36:51;;;;;;;19.95;4.07;;;;;;;14.11;100.00;100488.56;5047945;28;20089;-68
2022/06/01 08:39:16;;;;;;;7.72;3.72;;;;;;;14.00;100.00;100457.53;5038580;28;20029;-68
2022/06/01 08:41:42;;;;;;;4.72;2.90;;;;;;;14.24;100.00;100498.25;5044323;28;20928;-68
2022/06/01 08:44:35;;;;;;;6.57;4.10;;;;;;;14.25;100.00;100491.19;5047609;28;20031;-68
2022/06/01 08:47:16;;;;;;;5.53;3.13;;;;;;;14.33;100.00;100484.47;5046890;28;20898;-68
2022/06/01 08:49:42;;;;;;;6.00;3.08;;;;;;;14.47;100.00;100490.66;5088234;28;20031;-68
2022/06/01 08:52:08;;;;;;;8.93;2.65;;;;;;;14.36;100.00;100477.31;5044001;28;20024;-68
2022/06/01 08:54:33;;;;;;;6.60;2.25;;;;;;;14.33;100.00;100491.53;5073343;28;20067;-68
2022/06/01 08:57:05;;;;;;;6.50;2.30;;;;;;;14.22;100.00;100486.94;5091226;28;20402;-68
2022/06/01 08:59:52;;;;;;;8.75;2.80;;;;;;;14.15;100.00;100495.34;5065317;28;20032;-68
2022/06/01 09:02:48;;;;;;;8.65;3.10;;;;;;;14.15;100.00;100490.06;5052761;28;20033;-69
2022/06/01 09:05:32;;;;;;;5.65;2.15;;;;;;;14.17;100.00;100493.47;5050905;28;20081;-68
2022/06/01 09:08:18;;;;;;;5.30;2.90;;;;;;;14.08;100.00;100463.19;5053807;28;20050;-68
2022/06/01 09:10:53;;;;;;;4.05;2.30;;;;;;;14.39;100.00;100487.69;5063104;28;20028;-68
2022/06/01 09:13:24;;;;;;;6.85;2.85;;;;;;;14.61;100.00;100493.28;5050038;28;20722;-69
2022/06/01 09:15:54;;;;;;;5.22;2.97;;;;;;;14.77;100.00;100472.78;5042195;28;20314;-68
2022/06/01 09:18:24;;;;;;;7.25;3.30;;;;;;;15.05;100.00;100492.97;5060016;27;20028;-68
2022/06/01 09:23:33;;;;;;;4.55;2.13;;;;;;;15.11;100.00;100487.28;5056723;28;20123;-68
2022/06/01 09:25:59;;;;;;;6.65;2.50;;;;;;;15.02;100.00;100483.44;5063616;28;20679;-68
2022/06/01 09:28:28;;;;;;;4.80;1.92;;;;;;;15.13;100.00;100470.34;5042178;28;20106;-68
2022/06/01 09:31:13;;;;;;;4.88;1.92;;;;;;;15.32;100.00;100491.97;5046958;28;20044;-68
2022/06/01 09:33:38;;;;;;;7.55;1.90;;;;;;;15.56;100.00;100486.81;5045854;28;20816;-68
2022/06/01 09:36:07;;;;;;;6.22;2.63;;;;;;;15.68;100.00;100470.06;5043007;28;20025;-68
2022/06/01 09:38:51;;;;;;;5.55;2.72;;;;;;;16.03;100.00;100487.94;5045985;28;20876;-68
2022/06/01 09:41:19;;;;;;;10.43;3.00;;;;;;;16.04;100.00;100485.19;5047726;28;20879;-68
2022/06/01 09:43:51;;;;;;;5.00;2.65;;;;;;;15.99;100.00;100482.00;5049604;28;20969;-68
2022/06/01 09:46:49;;;;;;;7.68;3.13;;;;;;;16.27;100.00;100491.47;5043734;28;20136;-68
2022/06/01 09:49:27;;;;;;;4.97;2.58;;;;;;;16.53;100.00;100492.22;5044679;28;20915;-68
2022/06/01 09:52:00;;;;;;;5.43;2.35;;;;;;;16.56;100.00;100486.75;5039901;28;20132;-68
2022/06/01 09:54:31;;;;;;;5.38;2.10;;;;;;;16.60;100.00;100485.53;5046481;28;20020;-69
2022/06/01 09:56:57;;;;;;;4.13;2.20;;;;;;;16.65;100.00;100480.75;5049813;28;20024;-69
2022/06/01 10:08:12;;;;;;;10.80;2.83;;;;;;;16.47;100.00;100461.69;5051363;28;20039;-68
2022/06/01 10:10:38;;;;;;;7.70;2.83;;;;;;;16.61;100.00;100484.59;5040339;28;20355;-68
2022/06/01 10:13:06;;;;;;;8.27;2.65;;;;;;;16.83;100.00;100485.53;5050057;28;20854;-68
2022/06/01 10:15:40;;;;;;;4.75;2.28;;;;;;;16.82;100.00;100477.69;5051488;28;20032;-68
2022/06/01 10:18:32;;;;;;;13.52;2.95;;;;;;;16.73;100.00;100481.00;5051422;28;20509;-67
2022/06/01 10:21:06;;;;;;;5.75;2.55;;;;;;;16.40;100.00;100422.47;5047884;28;20880;-68
2022/06/01 10:23:41;;;;;;;3.30;1.80;;;;;;;16.51;100.00;100457.00;5056888;28;20895;-68
2022/06/01 10:26:24;;;;;;;4.80;1.98;;;;;;;16.65;100.00;100478.09;5041855;28;20032;-68
2022/06/01 10:28:53;;;;;;;9.93;2.25;;;;;;;16.62;100.00;100486.28;5049932;28;20032;-68
2022/06/01 10:31:24;;;;;;;7.72;2.40;;;;;;;16.60;100.00;100488.19;5048040;28;20921;-68
2022/06/01 10:33:55;;;;;;;4.22;2.25;;;;;;;16.27;100.00;100455.19;5042251;28;20039;-69
2022/06/01 10:36:28;;;;;;;3.85;1.75;;;;;;;16.24;100.00;100481.94;5049854;28;20139;-68
2022/06/01 10:39:03;;;;;;;2.85;1.63;;;;;;;16.26;100.00;100490.63;5053327;28;21014;-68
2022/06/01 10:41:48;;;;;;;5.22;1.88;;;;;;;16.04;100.00;100487.84;5043835;28;20044;-68
2022/06/01 10:45:03;;;;;;;6.05;1.73;;;;;;;16.06;100.00;100493.84;5051071;28;20035;-68
2022/06/01 10:47:54;;;;;;;5.72;1.75;;;;;;;16.33;100.00;100485.72;5044837;28;20036;-68
2022/06/01 10:50:25;;;;;;;5.20;1.58;;;;;;;16.48;100.00;100474.00;5065396;28;20097;-68
2022/06/01 10:52:59;;;;;;;4.72;1.92;;;;;;;16.96;100.00;100496.09;5038463;28;20028;-68
2022/06/01 10:55:32;;;;;;;5.38;2.25;;;;;;;17.01;98.39;100483.31;5051661;28;20032;-68
2022/06/01 10:57:59;;;;;;;7.50;2.97;;;;;;;17.06;99.39;100483.81;5043860;28;20040;-67
2022/06/01 11:00:42;;;;;;;5.80;2.53;;;;;;;17.15;100.00;100485.78;5043392;28;20028;-68
2022/06/01 11:03:20;;;;;;;2.72;1.40;;;;;;;17.14;84.62;100493.84;5046772;28;20035;-68
2022/06/01 11:06:12;;;;;;;5.35;2.13;;;;;;;17.08;87.50;100489.84;5041862;28;20036;-68
2022/06/01 11:08:52;;;;;;;3.97;2.00;;;;;;;17.29;85.79;100472.28;5041665;28;20035;-68
2022/06/01 11:11:18;;;;;;;5.28;1.67;;;;;;;17.46;86.31;100472.81;5045235;28;20028;-68
2022/06/01 11:13:49;;;;;;;5.82;1.92;;;;;;;17.65;87.62;100483.72;5047622;28;20097;-68
2022/06/01 11:16:30;;;;;;;4.28;1.73;;;;;;;17.96;85.88;100476.84;5047604;28;20031;-68
2022/06/01 11:19:24;;;;;;;5.63;1.40;;;;;;;18.45;89.37;100457.78;5043807;28;20955;-68
2022/06/01 11:22:14;;;;;;;5.00;1.98;;;;;;;18.84;83.61;100463.34;5039061;28;20178;-67
2022/06/01 11:25:05;;;;;;;5.32;2.03;;;;;;;19.15;84.73;100474.94;5052239;28;20020;-69
2022/06/01 11:27:53;;;;;;;6.82;1.70;;;;;;;19.29;77.34;100487.94;5060143;28;20043;-68
2022/06/01 11:30:21;;;;;;;5.95;1.77;;;;;;;18.91;76.72;100482.31;5038617;28;20035;-70
2022/06/01 11:32:57;;;;;;;3.45;1.20;;;;;;;18.80;75.54;100491.19;5048353;28;20964;-68
2022/06/01 11:35:45;;;;;;;5.78;1.20;;;;;;;18.82;73.88;100448.47;5045276;28;20875;-70
2022/06/01 11:38:21;;;;;;;2.97;1.10;;;;;;;19.55;75.96;100479.53;5039251;28;20028;-69
2022/06/01 11:40:51;;;;;;;5.05;1.40;;;;;;;19.71;67.96;100413.25;5047968;28;20038;-70
2022/06/01 11:43:39;;;;;;;2.95;1.17;;;;;;;20.72;66.72;100472.63;5046628;28;20082;-69
2022/06/01 11:46:12;;;;;;;2.05;0.93;;;;;;;21.63;63.06;100480.16;5044422;28;20127;-70
2022/06/01 11:48:44;;;;;;;3.15;1.50;;;;;;;22.20;61.21;100452.34;5029886;28;20805;-68
2022/06/01 11:51:21;;;;;;;3.28;1.02;;;;;;;22.56;59.90;100450.53;5042320;28;20093;-68
2022/06/01 11:54:16;;;;;;;3.85;1.00;;;;;;;22.19;60.26;100469.38;5045320;28;20044;-67
2022/06/01 11:56:43;;;;;;;3.50;1.38;;;;;;;22.03;60.52;100469.19;5041037;28;20135;-70
2022/06/01 11:59:22;;;;;;;4.45;1.08;;;;;;;21.96;63.78;100468.94;5037732;28;20435;-69
2022/06/01 12:01:56;;;;;;;3.33;1.05;;;;;;;22.28;61.83;100431.84;5045423;28;20028;-69